Time;durP1;ratioP1;P1;durP2;ratioP2;P2;SDS_P1;SDS_P2;PMS_P1;PMS_P2;Temp;Humidity;BMP_temperature;BMP_pressure;BME280_temperature;BME280_humidity;BME280_pressure;Samples;Min_cycle;Max_cycle;Signal;HPM_P1;HPM_P2
2020/12/03 00:00:55;;;;;;;17.43;15.63;;;;;21.90;99807.00;;;;2075236;28;20209;-46
2020/12/03 00:01:55;;;;;;;17.02;15.32;;;;;21.90;99806.00;;;;2078895;28;20263;-45
2020/12/03 00:02:57;;;;;;;14.90;13.50;;;;;21.90;99809.00;;;;2077975;28;20218;-45
2020/12/03 00:03:58;;;;;;;18.08;15.88;;;;;21.90;99808.00;;;;2078158;28;20694;-45
2020/12/03 00:04:59;;;;;;;15.60;14.00;;;;;21.90;99811.00;;;;2063311;28;20610;-49
2020/12/03 00:06:08;;;;;;;15.67;13.97;;;;;21.90;99798.00;;;;2059409;28;20229;-46
2020/12/03 00:07:08;;;;;;;16.33;13.95;;;;;22.00;99806.00;;;;2080691;28;20266;-45
2020/12/03 00:08:09;;;;;;;15.50;13.90;;;;;22.00;99799.00;;;;2076794;28;20292;-47
2020/12/03 00:09:11;;;;;;;15.33;12.33;;;;;21.90;99800.00;;;;2069987;28;20265;-49
2020/12/03 00:10:12;;;;;;;13.95;12.40;;;;;21.90;99799.00;;;;2077805;28;20252;-47
2020/12/03 00:11:12;;;;;;;14.83;12.60;;;;;21.90;99792.00;;;;2078877;28;20212;-46
2020/12/03 00:12:12;;;;;;;13.97;12.50;;;;;21.80;99790.00;;;;2079074;28;20217;-45
2020/12/03 00:13:20;;;;;;;12.90;11.70;;;;;21.80;99796.00;;;;2079031;28;20217;-48
2020/12/03 00:14:20;;;;;;;15.48;12.75;;;;;21.80;99789.00;;;;2070914;28;20221;-45
2020/12/03 00:15:20;;;;;;;14.20;12.80;;;;;21.90;99783.00;;;;2077780;28;20292;-46
2020/12/03 00:16:21;;;;;;;15.33;11.30;;;;;21.90;99785.00;;;;2079247;28;20303;-45
2020/12/03 00:17:21;;;;;;;17.67;12.27;;;;;21.90;99786.00;;;;2077989;28;20669;-48
2020/12/03 00:18:22;;;;;;;12.60;11.40;;;;;21.80;99785.00;;;;2078178;28;20279;-45
2020/12/03 00:19:23;;;;;;;14.77;11.50;;;;;21.80;99783.00;;;;2078578;28;20289;-46
2020/12/03 00:20:24;;;;;;;12.50;11.35;;;;;21.80;99785.00;;;;2078849;28;20217;-45
2020/12/03 00:21:33;;;;;;;12.57;11.27;;;;;21.70;99783.00;;;;2078775;28;20243;-45
2020/12/03 00:22:34;;;;;;;11.25;10.15;;;;;21.70;99782.00;;;;2077141;28;20214;-45
2020/12/03 00:23:35;;;;;;;12.53;11.33;;;;;21.80;99784.00;;;;2078048;28;20218;-45
2020/12/03 00:24:35;;;;;;;12.55;11.30;;;;;21.80;99776.00;;;;2077696;28;20221;-47
2020/12/03 00:25:36;;;;;;;12.10;10.93;;;;;21.70;99766.00;;;;2078683;28;20632;-45
2020/12/03 00:26:36;;;;;;;11.60;10.50;;;;;21.70;99776.00;;;;2078137;28;20225;-45
2020/12/03 00:27:37;;;;;;;12.27;10.93;;;;;21.60;99762.00;;;;2077950;28;20209;-45
2020/12/03 00:28:40;;;;;;;11.63;10.52;;;;;21.70;99760.00;;;;2078885;28;20225;-49
2020/12/03 00:29:40;;;;;;;11.85;10.70;;;;;21.70;99763.00;;;;2078880;28;20321;-45
2020/12/03 00:30:41;;;;;;;10.60;9.67;;;;;21.70;99765.00;;;;2079011;28;20224;-45
2020/12/03 00:31:42;;;;;;;11.00;9.90;;;;;21.70;99766.00;;;;2078638;28;20229;-47
2020/12/03 00:32:42;;;;;;;11.48;10.32;;;;;21.70;99764.00;;;;2078711;28;20292;-46
2020/12/03 00:33:43;;;;;;;11.20;10.17;;;;;21.70;99767.00;;;;2077980;28;20811;-46
2020/12/03 00:34:43;;;;;;;11.07;9.97;;;;;21.70;99761.00;;;;2077880;28;20235;-45
2020/12/03 00:35:47;;;;;;;11.13;10.03;;;;;21.70;99758.00;;;;2078956;28;20279;-45
2020/12/03 00:36:48;;;;;;;11.65;10.55;;;;;21.70;99762.00;;;;2078613;28;20593;-48
2020/12/03 00:37:48;;;;;;;11.50;10.30;;;;;21.60;99759.00;;;;2076639;28;20220;-46
2020/12/03 00:38:49;;;;;;;10.60;9.60;;;;;21.70;99761.00;;;;2074531;28;20220;-45
2020/12/03 00:39:50;;;;;;;10.63;9.73;;;;;21.60;99748.00;;;;2078555;28;20324;-46
2020/12/03 00:40:50;;;;;;;10.57;9.67;;;;;21.60;99753.00;;;;2078802;28;20279;-49
2020/12/03 00:41:51;;;;;;;11.40;10.20;;;;;21.60;99750.00;;;;2078680;28;20278;-46
2020/12/03 00:42:55;;;;;;;10.02;9.13;;;;;21.60;99752.00;;;;2078683;28;20221;-49
2020/12/03 00:43:56;;;;;;;10.45;9.45;;;;;21.50;99749.00;;;;2069892;28;20216;-47
2020/12/03 00:44:56;;;;;;;11.53;9.90;;;;;21.60;99746.00;;;;2074613;28;20718;-48
2020/12/03 00:45:56;;;;;;;10.17;9.17;;;;;21.60;99745.00;;;;2078868;28;20237;-45
2020/12/03 00:46:57;;;;;;;9.80;8.90;;;;;21.60;99743.00;;;;2078713;28;20299;-45
2020/12/03 00:47:57;;;;;;;10.00;9.00;;;;;21.50;99745.00;;;;2078515;28;20213;-45
2020/12/03 00:48:57;;;;;;;10.17;9.17;;;;;21.50;99735.00;;;;2078729;28;20223;-46
2020/12/03 00:49:58;;;;;;;10.70;9.70;;;;;21.50;99737.00;;;;2078790;28;20216;-45
2020/12/03 00:50:58;;;;;;;10.17;9.27;;;;;21.50;99737.00;;;;2078497;28;20213;-50
2020/12/03 00:51:58;;;;;;;10.63;9.60;;;;;21.50;99731.00;;;;2078655;28;20697;-47
2020/12/03 00:52:59;;;;;;;9.80;8.90;;;;;21.50;99724.00;;;;2077766;28;20209;-48
2020/12/03 00:53:59;;;;;;;10.73;9.73;;;;;21.50;99723.00;;;;2077432;28;20222;-46
2020/12/03 00:55:00;;;;;;;10.47;9.47;;;;;21.50;99732.00;;;;2077823;28;20223;-50
2020/12/03 00:56:00;;;;;;;9.37;8.47;;;;;21.50;99734.00;;;;2078034;28;20205;-50
2020/12/03 00:57:00;;;;;;;10.33;9.33;;;;;21.50;99724.00;;;;2078251;28;20228;-50
2020/12/03 00:58:01;;;;;;;9.97;9.07;;;;;21.50;99732.00;;;;2078368;28;20209;-48
2020/12/03 00:59:01;;;;;;;10.17;9.27;;;;;21.50;99723.00;;;;2078162;28;20296;-48
2020/12/03 01:00:05;;;;;;;9.20;8.37;;;;;21.50;99729.00;;;;2078693;28;20448;-47
2020/12/03 01:01:05;;;;;;;9.93;9.10;;;;;21.50;99717.00;;;;2078457;28;20300;-47
2020/12/03 01:02:07;;;;;;;9.40;8.50;;;;;21.50;99721.00;;;;2078808;28;20213;-45
2020/12/03 01:03:07;;;;;;;9.40;8.50;;;;;21.50;99714.00;;;;2078146;28;20213;-47
2020/12/03 01:04:08;;;;;;;10.57;9.57;;;;;21.50;99712.00;;;;2078671;28;20209;-45
2020/12/03 01:05:09;;;;;;;9.67;8.83;;;;;21.50;99708.00;;;;2077744;28;20220;-47
2020/12/03 01:06:10;;;;;;;9.88;8.98;;;;;21.50;99705.00;;;;2077851;28;20221;-46
2020/12/03 01:07:10;;;;;;;9.43;8.63;;;;;21.50;99709.00;;;;2069089;28;21011;-48
2020/12/03 01:08:10;;;;;;;9.30;8.40;;;;;21.40;99706.00;;;;2076544;28;20216;-49
2020/12/03 01:09:12;;;;;;;9.90;9.00;;;;;21.40;99704.00;;;;2078442;28;20578;-49
2020/12/03 01:10:19;;;;;;;9.52;8.73;;;;;21.40;99704.00;;;;2078541;28;20222;-45
2020/12/03 01:11:20;;;;;;;9.65;8.85;;;;;21.40;99704.00;;;;2078352;28;20606;-49
2020/12/03 01:12:20;;;;;;;8.90;8.10;;;;;21.40;99704.00;;;;2078644;28;20224;-50
2020/12/03 01:13:22;;;;;;;9.20;8.37;;;;;21.40;99690.00;;;;2076156;28;20299;-47
2020/12/03 01:14:22;;;;;;;10.50;9.50;;;;;21.40;99699.00;;;;2078702;28;20247;-46
2020/12/03 01:15:23;;;;;;;9.40;8.60;;;;;21.40;99691.00;;;;2077748;28;20717;-45
2020/12/03 01:16:23;;;;;;;9.10;8.30;;;;;21.40;99695.00;;;;2078663;28;20247;-46
2020/12/03 01:17:23;;;;;;;9.27;8.40;;;;;21.40;99699.00;;;;2078580;28;20224;-48
2020/12/03 01:18:24;;;;;;;9.20;8.30;;;;;21.40;99694.00;;;;2075514;28;20216;-46
2020/12/03 01:19:24;;;;;;;9.23;8.33;;;;;21.40;99703.00;;;;2077381;28;20250;-47
2020/12/03 01:20:26;;;;;;;10.10;9.10;;;;;21.40;99696.00;;;;2077921;28;20239;-47
2020/12/03 01:21:26;;;;;;;9.55;8.57;;;;;21.40;99696.00;;;;2078297;28;20219;-46
2020/12/03 01:22:26;;;;;;;8.00;7.00;;;;;21.40;99697.00;;;;2077582;28;20640;-45
2020/12/03 01:23:27;;;;;;;8.70;8.00;;;;;21.40;99696.00;;;;2077874;28;20259;-45
2020/12/03 01:24:27;;;;;;;9.10;8.30;;;;;21.30;99695.00;;;;2078383;28;20249;-50
2020/12/03 01:25:29;;;;;;;8.70;7.90;;;;;21.30;99700.00;;;;2078039;28;20229;-48
2020/12/03 01:26:29;;;;;;;9.50;8.60;;;;;21.30;99694.00;;;;2078240;28;20226;-49
2020/12/03 01:27:30;;;;;;;9.20;8.40;;;;;21.30;99694.00;;;;2078363;28;20225;-48
2020/12/03 01:28:30;;;;;;;9.30;8.40;;;;;21.30;99691.00;;;;2078645;28;20226;-46
2020/12/03 01:29:30;;;;;;;9.27;8.47;;;;;21.30;99688.00;;;;2078566;28;20221;-46
2020/12/03 01:30:31;;;;;;;8.73;8.03;;;;;21.30;99685.00;;;;2078611;28;20220;-45
2020/12/03 01:31:31;;;;;;;9.30;7.97;;;;;21.30;99676.00;;;;2078522;28;20311;-46
2020/12/03 01:32:31;;;;;;;8.83;8.10;;;;;21.30;99680.00;;;;2078432;28;20224;-46
2020/12/03 01:33:32;;;;;;;8.60;7.80;;;;;21.30;99678.00;;;;2078493;28;20218;-47
2020/12/03 01:34:32;;;;;;;9.00;8.20;;;;;21.30;99679.00;;;;2077088;28;20312;-48
2020/12/03 01:35:32;;;;;;;8.73;7.93;;;;;21.30;99682.00;;;;2077996;28;20250;-46
2020/12/03 01:36:33;;;;;;;8.30;7.50;;;;;21.30;99684.00;;;;2078466;28;20344;-46
2020/12/03 01:37:34;;;;;;;9.53;8.63;;;;;21.30;99678.00;;;;2077952;28;20251;-45
2020/12/03 01:38:34;;;;;;;9.38;8.48;;;;;21.20;99675.00;;;;2078393;28;20212;-47
2020/12/03 01:39:34;;;;;;;8.57;7.80;;;;;21.30;99676.00;;;;2079915;28;20226;-45
2020/12/03 01:40:35;;;;;;;8.90;8.20;;;;;21.30;99664.00;;;;2079784;28;20270;-45
2020/12/03 01:41:35;;;;;;;8.57;7.77;;;;;21.30;99669.00;;;;2080047;28;20954;-45
2020/12/03 01:42:38;;;;;;;9.03;8.17;;;;;21.30;99672.00;;;;2080111;28;20244;-47
2020/12/03 01:43:42;;;;;;;9.07;8.23;;;;;21.20;99673.00;;;;2079723;28;20796;-45
2020/12/03 01:44:51;;;;;;;9.50;8.48;;;;;21.30;99671.00;;;;2078986;28;20641;-48
2020/12/03 01:45:56;;;;;;;8.85;8.05;;;;;21.20;99674.00;;;;2080146;28;20208;-46
2020/12/03 01:46:56;;;;;;;8.55;7.75;;;;;21.20;99675.00;;;;2079767;28;20217;-47
2020/12/03 01:47:57;;;;;;;8.80;8.00;;;;;21.20;99668.00;;;;2079088;28;20344;-45
2020/12/03 01:49:04;;;;;;;8.90;8.13;;;;;21.20;99673.00;;;;2071082;28;20227;-45
2020/12/03 01:50:05;;;;;;;7.68;6.97;;;;;21.20;99671.00;;;;2078889;28;20271;-49
2020/12/03 01:51:23;;;;;;;8.67;7.90;;;;;21.20;99669.00;;;;2087989;28;20506;-45
2020/12/03 01:52:24;;;;;;;8.60;7.90;;;;;21.20;99673.00;;;;2085993;28;20219;-45
2020/12/03 01:53:24;;;;;;;8.80;8.00;;;;;21.20;99660.00;;;;2080067;28;20248;-45
2020/12/03 01:54:24;;;;;;;8.97;8.20;;;;;21.20;99663.00;;;;2079728;28;20231;-47
2020/12/03 01:55:25;;;;;;;8.53;7.83;;;;;21.20;99663.00;;;;2079131;28;20221;-47
2020/12/03 01:56:37;;;;;;;8.67;7.97;;;;;21.20;99653.00;;;;2079847;28;20230;-46
2020/12/03 01:58:01;;;;;;;9.02;8.23;;;;;21.20;99654.00;;;;2087641;28;20213;-47
2020/12/03 01:59:02;;;;;;;8.23;7.53;;;;;21.20;99661.00;;;;2087991;28;20247;-48
2020/12/03 02:00:10;;;;;;;8.70;7.60;;;;;21.10;99653.00;;;;2087413;28;20251;-45
2020/12/03 02:01:11;;;;;;;7.88;7.20;;;;;21.10;99651.00;;;;2087588;28;20214;-49
2020/12/03 02:02:12;;;;;;;8.43;7.73;;;;;21.10;99652.00;;;;2081969;28;20237;-48
2020/12/03 02:03:12;;;;;;;8.80;8.00;;;;;21.20;99655.00;;;;2079054;28;20209;-45
2020/12/03 02:04:13;;;;;;;8.40;7.70;;;;;21.20;99642.00;;;;2080197;28;20220;-48
2020/12/03 02:05:24;;;;;;;8.30;7.60;;;;;21.10;99642.00;;;;2077967;28;20267;-46
2020/12/03 02:06:29;;;;;;;7.97;7.28;;;;;21.10;99646.00;;;;2078435;28;20741;-47
2020/12/03 02:07:29;;;;;;;8.60;7.90;;;;;21.10;99635.00;;;;2079435;28;20249;-47
2020/12/03 02:08:30;;;;;;;8.13;7.40;;;;;21.10;99636.00;;;;2079528;28;20309;-47
2020/12/03 02:09:30;;;;;;;8.03;7.27;;;;;21.10;99633.00;;;;2079869;28;20290;-47
2020/12/03 02:10:30;;;;;;;8.20;7.50;;;;;21.10;99628.00;;;;2079019;28;20235;-47
2020/12/03 02:11:31;;;;;;;8.40;7.70;;;;;21.10;99629.00;;;;2079161;28;20744;-47
2020/12/03 02:12:31;;;;;;;8.00;7.20;;;;;21.10;99623.00;;;;2073424;28;20268;-47
2020/12/03 02:13:32;;;;;;;8.70;8.00;;;;;21.10;99629.00;;;;2079772;28;20785;-48
2020/12/03 02:14:32;;;;;;;8.07;7.33;;;;;21.10;99621.00;;;;2078873;28;20257;-48
2020/12/03 02:15:36;;;;;;;7.70;7.00;;;;;21.00;99617.00;;;;2079949;28;20216;-48
2020/12/03 02:16:39;;;;;;;8.10;7.50;;;;;21.10;99625.00;;;;2079503;28;20221;-47
2020/12/03 02:17:40;;;;;;;8.48;7.68;;;;;21.10;99619.00;;;;2079757;28;20216;-46
2020/12/03 02:18:44;;;;;;;7.60;6.90;;;;;21.10;99617.00;;;;2079857;28;20217;-48
2020/12/03 02:19:44;;;;;;;8.30;7.55;;;;;21.10;99610.00;;;;2079363;28;20211;-47
2020/12/03 02:20:44;;;;;;;8.23;7.50;;;;;21.10;99613.00;;;;2083932;28;20615;-48
2020/12/03 02:21:45;;;;;;;8.10;7.40;;;;;21.00;99604.00;;;;2087355;28;20789;-48
2020/12/03 02:22:46;;;;;;;8.13;7.43;;;;;21.00;99608.00;;;;2079589;28;20648;-47
2020/12/03 02:23:47;;;;;;;8.23;7.53;;;;;21.00;99601.00;;;;2078967;28;20224;-48
2020/12/03 02:24:47;;;;;;;8.70;8.00;;;;;21.00;99605.00;;;;2077955;28;20220;-48
2020/12/03 02:25:47;;;;;;;8.87;8.07;;;;;21.00;99601.00;;;;2079466;28;20220;-47
2020/12/03 02:26:49;;;;;;;8.00;7.30;;;;;21.00;99604.00;;;;2079688;28;20249;-48
2020/12/03 02:27:49;;;;;;;7.80;7.15;;;;;21.00;99595.00;;;;2079601;28;20224;-48
2020/12/03 02:28:50;;;;;;;7.27;6.67;;;;;21.00;99598.00;;;;2079911;28;20267;-46
2020/12/03 02:29:50;;;;;;;7.30;6.70;;;;;21.00;99590.00;;;;2079862;28;20221;-47
2020/12/03 02:30:51;;;;;;;7.67;7.07;;;;;21.00;99594.00;;;;2079536;28;20217;-47
2020/12/03 02:31:51;;;;;;;7.67;6.97;;;;;21.00;99593.00;;;;2079704;28;20321;-46
2020/12/03 02:32:51;;;;;;;8.20;7.43;;;;;21.00;99587.00;;;;2079526;28;20216;-48
2020/12/03 02:33:52;;;;;;;7.63;7.00;;;;;21.00;99579.00;;;;2079189;28;20581;-48
2020/12/03 02:34:52;;;;;;;7.97;7.27;;;;;21.00;99576.00;;;;2077779;28;20595;-46
2020/12/03 02:35:52;;;;;;;7.97;7.27;;;;;21.00;99584.00;;;;2078553;28;20718;-47
2020/12/03 02:36:54;;;;;;;7.23;6.53;;;;;21.00;99590.00;;;;2078444;28;20239;-48
2020/12/03 02:37:54;;;;;;;8.00;7.32;;;;;21.00;99584.00;;;;2079359;28;20577;-46
2020/12/03 02:38:55;;;;;;;7.80;7.17;;;;;21.00;99583.00;;;;2079812;28;20244;-48
2020/12/03 02:39:55;;;;;;;7.53;6.83;;;;;21.00;99582.00;;;;2079710;28;20273;-48
2020/12/03 02:40:59;;;;;;;8.20;7.40;;;;;21.00;99580.00;;;;2079648;28;20223;-48
2020/12/03 02:42:00;;;;;;;8.45;7.65;;;;;20.90;99584.00;;;;2079647;28;20228;-47
2020/12/03 02:43:01;;;;;;;7.13;6.53;;;;;21.00;99573.00;;;;2079558;28;20224;-47
2020/12/03 02:44:01;;;;;;;7.50;6.83;;;;;20.90;99568.00;;;;2079356;28;20229;-47
2020/12/03 02:45:02;;;;;;;7.70;7.00;;;;;21.00;99580.00;;;;2078569;28;20221;-48
2020/12/03 02:46:03;;;;;;;7.85;7.15;;;;;21.00;99570.00;;;;2079287;28;20225;-46
2020/12/03 02:47:03;;;;;;;7.00;6.40;;;;;21.00;99567.00;;;;2087038;28;20243;-48
2020/12/03 02:48:03;;;;;;;6.73;6.23;;;;;21.00;99567.00;;;;2087090;28;21004;-48
2020/12/03 02:49:04;;;;;;;7.80;7.10;;;;;20.90;99564.00;;;;2079476;28;20824;-47
2020/12/03 02:50:05;;;;;;;7.13;6.53;;;;;20.90;99561.00;;;;2078687;28;20215;-47
2020/12/03 02:51:05;;;;;;;7.60;7.00;;;;;21.00;99553.00;;;;2078177;28;20624;-48
2020/12/03 02:52:06;;;;;;;6.57;5.97;;;;;20.90;99566.00;;;;2077277;28;20208;-47
2020/12/03 02:53:06;;;;;;;6.53;6.03;;;;;20.90;99555.00;;;;2079461;28;20936;-48
2020/12/03 02:54:07;;;;;;;7.67;7.00;;;;;20.90;99552.00;;;;2079123;28;20223;-48
2020/12/03 02:55:08;;;;;;;6.90;6.30;;;;;20.90;99554.00;;;;2077870;28;20571;-47
2020/12/03 02:56:11;;;;;;;9.00;7.07;;;;;20.90;99555.00;;;;2078574;28;20225;-48
2020/12/03 02:57:11;;;;;;;7.28;6.68;;;;;20.90;99549.00;;;;2079120;28;20220;-48
2020/12/03 02:58:11;;;;;;;7.70;7.00;;;;;20.90;99547.00;;;;2079327;28;20208;-47
2020/12/03 02:59:12;;;;;;;7.60;6.97;;;;;20.90;99547.00;;;;2079375;28;20227;-47
2020/12/03 03:00:12;;;;;;;6.80;6.23;;;;;20.90;99545.00;;;;2079381;28;20220;-48
2020/12/03 03:01:12;;;;;;;7.30;6.70;;;;;20.90;99546.00;;;;2079394;28;20223;-48
2020/12/03 03:02:13;;;;;;;6.10;5.60;;;;;20.90;99546.00;;;;2079498;28;20227;-47
2020/12/03 03:03:14;;;;;;;6.20;5.70;;;;;20.90;99540.00;;;;2078452;28;20220;-48
2020/12/03 03:04:14;;;;;;;7.30;6.70;;;;;20.90;99542.00;;;;2078614;28;20689;-49
2020/12/03 03:05:15;;;;;;;6.80;6.30;;;;;20.90;99535.00;;;;2078489;28;20692;-49
2020/12/03 03:06:15;;;;;;;6.65;6.15;;;;;20.90;99536.00;;;;2079113;28;20585;-46
2020/12/03 03:07:16;;;;;;;7.30;6.70;;;;;20.80;99536.00;;;;2079227;28;20315;-48
2020/12/03 03:08:16;;;;;;;6.93;6.43;;;;;20.80;99527.00;;;;2079062;28;20232;-48
2020/12/03 03:09:16;;;;;;;8.43;6.70;;;;;20.80;99528.00;;;;2086960;28;20211;-48
2020/12/03 03:10:21;;;;;;;6.70;6.10;;;;;20.90;99526.00;;;;2087011;28;20218;-47
2020/12/03 03:11:22;;;;;;;6.95;6.45;;;;;20.80;99526.00;;;;2071684;28;20221;-47
2020/12/03 03:12:22;;;;;;;6.27;5.73;;;;;20.80;99524.00;;;;2071380;28;20208;-47
2020/12/03 03:13:22;;;;;;;6.67;6.17;;;;;20.80;99523.00;;;;2087114;28;20242;-48
2020/12/03 03:14:23;;;;;;;6.77;6.17;;;;;20.80;99521.00;;;;2078274;28;20259;-48
2020/12/03 03:15:23;;;;;;;6.80;6.20;;;;;20.80;99519.00;;;;2077906;28;20205;-48
2020/12/03 03:16:23;;;;;;;7.17;6.57;;;;;20.80;99516.00;;;;2079273;28;20550;-47
2020/12/03 03:17:24;;;;;;;6.37;5.83;;;;;20.80;99520.00;;;;2079089;28;20299;-46
2020/12/03 03:18:24;;;;;;;6.87;6.27;;;;;20.90;99524.00;;;;2078909;28;20204;-48
2020/12/03 03:19:24;;;;;;;7.20;6.60;;;;;20.80;99516.00;;;;2079439;28;20212;-48
2020/12/03 03:20:25;;;;;;;6.70;6.20;;;;;20.80;99525.00;;;;2079343;28;20214;-48
2020/12/03 03:21:25;;;;;;;7.00;6.27;;;;;20.80;99510.00;;;;2079122;28;20212;-48
2020/12/03 03:22:25;;;;;;;6.33;5.83;;;;;20.80;99520.00;;;;2078281;28;20208;-48
2020/12/03 03:23:26;;;;;;;6.37;5.80;;;;;20.80;99510.00;;;;2079312;28;20224;-46
2020/12/03 03:24:26;;;;;;;6.77;6.17;;;;;20.80;99515.00;;;;2078895;28;20220;-47
2020/12/03 03:25:26;;;;;;;6.33;5.83;;;;;20.80;99506.00;;;;2078339;28;20305;-47
2020/12/03 03:26:27;;;;;;;6.43;5.90;;;;;20.80;99505.00;;;;2079153;28;20215;-48
2020/12/03 03:27:27;;;;;;;6.07;5.57;;;;;20.80;99506.00;;;;2079030;28;20212;-46
2020/12/03 03:28:27;;;;;;;6.20;5.70;;;;;20.80;99507.00;;;;2079134;28;20731;-49
2020/12/03 03:29:28;;;;;;;6.20;5.70;;;;;20.80;99505.00;;;;2078870;28;20812;-48
2020/12/03 03:30:28;;;;;;;6.33;5.83;;;;;20.80;99503.00;;;;2086556;28;20311;-46
2020/12/03 03:31:28;;;;;;;6.10;5.60;;;;;20.80;99502.00;;;;2086888;28;20303;-47
2020/12/03 03:32:29;;;;;;;6.43;5.93;;;;;20.80;99504.00;;;;2079246;28;20212;-47
2020/12/03 03:33:29;;;;;;;6.87;6.27;;;;;20.80;99498.00;;;;2079020;28;20759;-47
2020/12/03 03:34:29;;;;;;;6.73;6.13;;;;;20.80;99494.00;;;;2077549;28;20995;-46
2020/12/03 03:35:30;;;;;;;6.63;6.03;;;;;20.80;99502.00;;;;2078942;28;21062;-48
2020/12/03 03:36:30;;;;;;;6.60;6.00;;;;;20.80;99497.00;;;;2079006;28;20593;-47
2020/12/03 03:37:32;;;;;;;6.13;5.63;;;;;20.70;99502.00;;;;2077872;28;20216;-47
2020/12/03 03:38:32;;;;;;;6.97;6.38;;;;;20.80;99499.00;;;;2078445;28;20242;-47
2020/12/03 03:39:32;;;;;;;6.47;5.87;;;;;20.80;99500.00;;;;2073055;28;20324;-48
2020/12/03 03:40:32;;;;;;;6.60;5.97;;;;;20.70;99490.00;;;;2079176;28;20274;-47
2020/12/03 03:41:33;;;;;;;6.13;5.63;;;;;20.70;99490.00;;;;2079420;28;20220;-48
2020/12/03 03:42:33;;;;;;;6.17;5.67;;;;;20.70;99499.00;;;;2079200;28;20212;-48
2020/12/03 03:43:34;;;;;;;6.57;5.97;;;;;20.70;99493.00;;;;2079188;28;20216;-48
2020/12/03 03:44:34;;;;;;;6.37;5.87;;;;;20.70;99492.00;;;;2078040;28;20229;-48
2020/12/03 03:45:34;;;;;;;6.30;5.80;;;;;20.70;99478.00;;;;2079132;28;20285;-47
2020/12/03 03:46:35;;;;;;;6.20;5.70;;;;;20.70;99489.00;;;;2079059;28;20577;-47
2020/12/03 03:47:36;;;;;;;6.60;6.10;;;;;20.70;99495.00;;;;2078696;28;20219;-47
2020/12/03 03:48:36;;;;;;;6.13;5.63;;;;;20.80;99489.00;;;;2079056;28;20270;-47
2020/12/03 03:49:36;;;;;;;6.53;5.93;;;;;20.70;99497.00;;;;2079164;28;20212;-48
2020/12/03 03:50:37;;;;;;;6.00;5.50;;;;;20.70;99490.00;;;;2078910;28;20212;-46
2020/12/03 03:51:37;;;;;;;6.87;6.17;;;;;20.70;99491.00;;;;2078878;28;20220;-47
2020/12/03 03:52:38;;;;;;;6.13;5.63;;;;;20.70;99487.00;;;;2078483;28;20219;-48
2020/12/03 03:53:38;;;;;;;6.87;6.27;;;;;20.70;99487.00;;;;2078950;28;20228;-48
2020/12/03 03:54:38;;;;;;;5.97;5.47;;;;;20.70;99477.00;;;;2077830;28;20657;-48
2020/12/03 03:55:39;;;;;;;6.50;6.00;;;;;20.70;99487.00;;;;2079191;28;20227;-48
2020/12/03 03:56:39;;;;;;;5.83;5.33;;;;;20.70;99485.00;;;;2078943;28;20226;-46
2020/12/03 03:57:40;;;;;;;6.47;5.93;;;;;20.70;99483.00;;;;2078860;28;20220;-47
2020/12/03 03:58:40;;;;;;;5.97;5.53;;;;;20.70;99472.00;;;;2076492;28;20219;-46
2020/12/03 03:59:40;;;;;;;5.87;5.37;;;;;20.70;99480.00;;;;2086588;28;20309;-47
2020/12/03 04:00:42;;;;;;;5.70;5.30;;;;;20.60;99468.00;;;;2079369;28;20227;-46
2020/12/03 04:01:43;;;;;;;6.28;5.70;;;;;20.70;99469.00;;;;2079041;28;20270;-48
2020/12/03 04:02:44;;;;;;;6.07;5.57;;;;;20.70;99473.00;;;;2078458;28;20690;-47
2020/12/03 04:03:44;;;;;;;5.35;4.95;;;;;20.60;99466.00;;;;2078621;28;20216;-52
2020/12/03 04:04:46;;;;;;;6.10;5.60;;;;;20.70;99457.00;;;;2073055;28;20216;-51
2020/12/03 04:05:50;;;;;;;6.63;6.13;;;;;20.70;99466.00;;;;2078954;28;20216;-47
2020/12/03 04:06:50;;;;;;;6.15;5.65;;;;;20.70;99460.00;;;;2078555;28;20353;-48
2020/12/03 04:07:50;;;;;;;5.80;5.30;;;;;20.70;99457.00;;;;2078801;28;20629;-48
2020/12/03 04:08:51;;;;;;;5.13;4.73;;;;;20.60;99453.00;;;;2079043;28;20247;-47
2020/12/03 04:09:51;;;;;;;5.63;5.13;;;;;20.60;99458.00;;;;2078906;28;20226;-47
2020/12/03 04:10:52;;;;;;;5.97;5.47;;;;;20.60;99456.00;;;;2078936;28;20239;-47
2020/12/03 04:11:52;;;;;;;6.20;5.70;;;;;20.60;99439.00;;;;2078833;28;20238;-47
2020/12/03 04:12:52;;;;;;;6.07;5.57;;;;;20.60;99441.00;;;;2078812;28;20199;-48
2020/12/03 04:13:53;;;;;;;5.60;5.20;;;;;20.60;99437.00;;;;2077934;28;20307;-47
2020/12/03 04:14:53;;;;;;;5.80;5.30;;;;;20.60;99441.00;;;;2077831;28;20299;-48
2020/12/03 04:15:53;;;;;;;5.47;4.97;;;;;20.60;99431.00;;;;2079014;28;20698;-48
2020/12/03 04:16:54;;;;;;;6.67;5.43;;;;;20.60;99432.00;;;;2078536;28;20573;-46
2020/12/03 04:17:54;;;;;;;5.67;5.17;;;;;20.60;99438.00;;;;2078804;28;20720;-47
2020/12/03 04:18:54;;;;;;;5.60;5.10;;;;;20.60;99439.00;;;;2078796;28;20312;-48
2020/12/03 04:19:55;;;;;;;6.00;5.50;;;;;20.60;99437.00;;;;2078630;28;20205;-48
2020/12/03 04:20:57;;;;;;;6.10;5.50;;;;;20.60;99439.00;;;;2078790;28;20296;-48
2020/12/03 04:21:57;;;;;;;5.85;5.30;;;;;20.60;99436.00;;;;2078548;28;20220;-47
2020/12/03 04:22:57;;;;;;;5.30;4.80;;;;;20.60;99440.00;;;;2075935;28;20295;-47
2020/12/03 04:23:58;;;;;;;5.30;4.90;;;;;20.60;99432.00;;;;2078837;28;20220;-47
2020/12/03 04:24:58;;;;;;;5.80;5.30;;;;;20.60;99429.00;;;;2077686;28;20278;-46
2020/12/03 04:25:59;;;;;;;5.37;4.87;;;;;20.60;99431.00;;;;2078843;28;20292;-47
2020/12/03 04:26:59;;;;;;;5.67;5.17;;;;;20.50;99441.00;;;;2078539;28;20275;-48
2020/12/03 04:28:00;;;;;;;5.47;4.97;;;;;20.50;99434.00;;;;2078725;28;20227;-48
2020/12/03 04:29:00;;;;;;;6.33;5.83;;;;;20.50;99436.00;;;;2078741;28;20258;-46
2020/12/03 04:30:00;;;;;;;5.50;5.00;;;;;20.60;99429.00;;;;2078948;28;20216;-47
2020/12/03 04:31:01;;;;;;;6.23;4.70;;;;;20.50;99433.00;;;;2078575;28;20220;-47
2020/12/03 04:32:01;;;;;;;6.17;5.63;;;;;20.50;99420.00;;;;2078565;28;20311;-48
2020/12/03 04:33:01;;;;;;;5.70;5.20;;;;;20.50;99428.00;;;;2078838;28;20304;-48
2020/12/03 04:34:02;;;;;;;5.20;4.70;;;;;20.60;99423.00;;;;2078659;28;20220;-47
2020/12/03 04:35:04;;;;;;;5.40;5.00;;;;;20.60;99427.00;;;;2077611;28;20238;-46
2020/12/03 04:36:04;;;;;;;4.88;4.47;;;;;20.50;99424.00;;;;2078197;28;20218;-46
2020/12/03 04:37:05;;;;;;;5.20;4.80;;;;;20.50;99422.00;;;;2077878;28;20247;-46
2020/12/03 04:38:06;;;;;;;5.43;5.00;;;;;20.50;99426.00;;;;2079818;28;20208;-48
2020/12/03 04:39:06;;;;;;;6.43;5.82;;;;;20.50;99420.00;;;;2080136;28;20205;-47
2020/12/03 04:40:08;;;;;;;6.00;5.40;;;;;20.50;99418.00;;;;2078050;28;20755;-46
2020/12/03 04:41:09;;;;;;;5.05;4.65;;;;;20.50;99418.00;;;;2078426;28;20226;-46
2020/12/03 04:42:27;;;;;;;5.30;4.90;;;;;20.50;99419.00;;;;2078875;28;20246;-47
2020/12/03 04:44:00;;;;;;;5.65;5.25;;;;;20.50;99420.00;;;;2079792;28;20632;-47
2020/12/03 04:45:09;;;;;;;5.40;4.90;;;;;20.50;99415.00;;;;2065293;28;20724;-46
2020/12/03 04:46:39;;;;;;;5.18;4.78;;;;;20.50;99407.00;;;;2081003;28;20257;-48
2020/12/03 04:47:45;;;;;;;5.05;4.65;;;;;20.50;99405.00;;;;2076249;28;20222;-47
2020/12/03 04:49:23;;;;;;;5.72;5.22;;;;;20.50;99412.00;;;;2074823;28;20750;-48
2020/12/03 04:50:43;;;;;;;4.78;4.40;;;;;20.50;99406.00;;;;2070216;28;20668;-46
2020/12/03 04:52:23;;;;;;;5.20;4.80;;;;;20.50;99404.00;;;;2077118;28;20207;-47
2020/12/03 04:53:47;;;;;;;5.40;5.00;;;;;20.50;99407.00;;;;2076868;28;20213;-47
2020/12/03 04:55:03;;;;;;;4.85;4.45;;;;;20.50;99403.00;;;;2077015;28;20306;-46
2020/12/03 04:56:12;;;;;;;4.97;4.57;;;;;20.50;99402.00;;;;2079272;28;20241;-47
2020/12/03 04:57:33;;;;;;;5.05;4.55;;;;;20.50;99403.00;;;;2077754;28;20226;-48
2020/12/03 04:58:36;;;;;;;4.68;4.28;;;;;20.50;99401.00;;;;2069732;28;20263;-48
2020/12/03 04:59:53;;;;;;;5.78;5.28;;;;;20.50;99403.00;;;;2069887;28;20316;-48
2020/12/03 05:01:00;;;;;;;4.47;4.18;;;;;20.50;99407.00;;;;2082430;28;20217;-48
2020/12/03 05:02:09;;;;;;;4.75;4.35;;;;;20.50;99394.00;;;;2069867;28;20223;-46
2020/12/03 05:03:24;;;;;;;5.07;4.57;;;;;20.40;99393.00;;;;2069831;28;20287;-46
2020/12/03 05:04:33;;;;;;;4.80;4.40;;;;;20.50;99394.00;;;;2078949;28;20269;-48
2020/12/03 05:05:46;;;;;;;4.82;4.43;;;;;20.50;99398.00;;;;2080041;28;20255;-48
2020/12/03 05:07:01;;;;;;;4.70;4.30;;;;;20.40;99387.00;;;;2071573;28;20219;-48
2020/12/03 05:08:05;;;;;;;4.90;4.50;;;;;20.50;99402.00;;;;2078467;28;20719;-46
2020/12/03 05:09:24;;;;;;;4.65;4.20;;;;;20.40;99396.00;;;;2078361;28;20200;-47
2020/12/03 05:10:45;;;;;;;4.35;4.05;;;;;20.50;99401.00;;;;2084766;28;20224;-48